createdAt,value
2023-02-04T00:02:02.150Z,7.29
2023-02-04T00:04:28.773Z,7.27
2023-02-04T00:06:55.363Z,7.27
2023-02-04T00:09:21.867Z,7.26
2023-02-04T00:11:48.422Z,7.22
2023-02-04T00:14:15.051Z,7.21
2023-02-04T00:16:41.534Z,7.16
2023-02-04T00:19:07.999Z,7.14
2023-02-04T00:21:34.571Z,7.13
2023-02-04T00:24:01.075Z,7.11
2023-02-04T00:26:27.619Z,7.11
2023-02-04T00:28:54.232Z,7.11
2023-02-04T00:31:20.874Z,7.08
2023-02-04T00:33:47.399Z,7.06
2023-02-04T00:36:14.025Z,7.04
2023-02-04T00:38:40.499Z,7.05
2023-02-04T00:41:07.147Z,7.05
2023-02-04T00:43:33.762Z,7.03
2023-02-04T00:46:00.463Z,7.04
2023-02-04T00:48:27.084Z,6.98
2023-02-04T00:50:54.391Z,6.94
2023-02-04T00:53:21.014Z,6.87
2023-02-04T00:55:47.661Z,6.82
2023-02-04T00:58:14.196Z,6.78
2023-02-04T01:00:40.673Z,6.72
2023-02-04T01:03:07.329Z,6.72
2023-02-04T01:05:33.843Z,6.69
2023-02-04T01:08:00.405Z,6.63
2023-02-04T01:10:27.009Z,6.58
2023-02-04T01:12:53.749Z,6.59
2023-02-04T01:15:20.241Z,6.53
2023-02-04T01:17:46.719Z,6.50
2023-02-04T01:20:13.672Z,6.51
2023-02-04T01:22:40.395Z,6.52
2023-02-04T01:25:07.564Z,6.55
2023-02-04T01:27:34.079Z,6.57
2023-02-04T01:30:00.570Z,6.59
2023-02-04T01:32:27.100Z,6.56
2023-02-04T01:34:53.961Z,6.54
2023-02-04T01:37:21.063Z,6.53
2023-02-04T01:39:47.572Z,6.53
2023-02-04T01:42:14.200Z,6.51
2023-02-04T01:44:40.843Z,6.49
2023-02-04T01:47:07.530Z,6.48
2023-02-04T01:49:34.171Z,6.46
2023-02-04T01:52:01.703Z,6.42
2023-02-04T01:54:28.751Z,6.42
2023-02-04T01:56:55.550Z,6.42
2023-02-04T01:59:22.390Z,6.43
2023-02-04T02:01:53.211Z,6.44
2023-02-04T02:04:32.431Z,6.46
2023-02-04T02:07:03.343Z,6.46
2023-02-04T02:09:32.761Z,6.45
2023-02-04T02:12:01.600Z,6.44
2023-02-04T02:14:28.083Z,6.43
2023-02-04T02:16:54.694Z,6.44
2023-02-04T02:19:28.715Z,6.43
2023-02-04T02:22:16.808Z,6.42
2023-02-04T02:24:43.355Z,6.40
2023-02-04T02:27:11.447Z,6.40
2023-02-04T02:29:40.308Z,6.38
2023-02-04T02:32:08.606Z,6.36
2023-02-04T02:34:35.818Z,6.35
2023-02-04T02:37:03.491Z,6.34
2023-02-04T02:39:30.380Z,6.32
2023-02-04T02:41:58.167Z,6.30
2023-02-04T02:44:26.867Z,6.25
2023-02-04T02:46:54.493Z,6.19
2023-02-04T02:49:22.351Z,6.12
2023-02-04T02:51:49.373Z,6.03
2023-02-04T02:54:24.240Z,5.98
2023-02-04T02:56:52.054Z,5.94
2023-02-04T02:59:18.826Z,5.92
2023-02-04T03:01:49.119Z,5.88
2023-02-04T03:04:17.094Z,5.86
2023-02-04T03:06:43.617Z,5.81
2023-02-04T03:09:10.297Z,5.76
2023-02-04T03:11:37.361Z,5.75
2023-02-04T03:14:04.570Z,5.74
2023-02-04T03:16:34.544Z,5.72
2023-02-04T03:19:01.800Z,5.71
2023-02-04T03:21:29.000Z,5.70
2023-02-04T03:23:56.777Z,5.70
2023-02-04T03:26:27.103Z,5.68
2023-02-04T03:28:54.530Z,5.65
2023-02-04T03:31:21.141Z,5.62
2023-02-04T03:33:47.830Z,5.59
2023-02-04T03:36:14.333Z,5.59
2023-02-04T03:38:41.347Z,5.55
2023-02-04T03:41:08.210Z,5.50
2023-02-04T03:43:34.869Z,5.45
2023-02-04T03:46:01.424Z,5.41
2023-02-04T03:48:28.015Z,5.41
2023-02-04T03:50:54.495Z,5.39
2023-02-04T03:53:22.133Z,5.36
2023-02-04T03:55:48.677Z,5.36
2023-02-04T03:58:15.179Z,5.39
2023-02-04T04:00:41.865Z,5.42
2023-02-04T04:03:08.426Z,5.43
2023-02-04T04:05:35.183Z,5.44
2023-02-04T04:08:01.884Z,5.41
2023-02-04T04:10:29.595Z,5.41
2023-02-04T04:12:56.297Z,5.39
2023-02-04T04:15:23.040Z,5.38
2023-02-04T04:17:49.531Z,5.38
2023-02-04T04:20:16.277Z,5.37
2023-02-04T04:22:42.830Z,5.40
2023-02-04T04:25:09.445Z,5.43
2023-02-04T04:27:35.898Z,5.41
2023-02-04T04:30:03.192Z,5.41
2023-02-04T04:32:29.735Z,5.40
2023-02-04T04:34:56.298Z,5.38
2023-02-04T04:37:22.865Z,5.35
2023-02-04T04:39:49.366Z,5.31
2023-02-04T04:42:15.936Z,5.27
2023-02-04T04:44:42.726Z,5.21
2023-02-04T04:47:09.227Z,5.19
2023-02-04T04:49:35.758Z,5.15
2023-02-04T04:52:02.260Z,5.13
2023-02-04T04:54:28.799Z,5.10
2023-02-04T04:56:55.232Z,5.10
2023-02-04T04:59:21.785Z,5.07
2023-02-04T05:01:48.427Z,5.04
2023-02-04T05:04:14.967Z,5.04
2023-02-04T05:06:41.520Z,5.08
2023-02-04T05:09:09.690Z,5.11
2023-02-04T05:11:36.468Z,5.10
2023-02-04T05:14:02.989Z,5.09
2023-02-04T05:16:29.548Z,5.10
2023-02-04T05:18:56.110Z,5.11
2023-02-04T05:21:22.630Z,5.11
2023-02-04T05:23:49.088Z,5.08
2023-02-04T05:26:28.513Z,5.02
2023-02-04T05:28:56.712Z,4.94
2023-02-04T05:31:23.365Z,4.90
2023-02-04T05:33:49.942Z,4.90
2023-02-04T05:36:17.867Z,4.90
2023-02-04T05:38:44.349Z,4.92
2023-02-04T05:41:10.860Z,4.92
2023-02-04T05:43:37.331Z,4.90
2023-02-04T05:46:04.365Z,4.90
2023-02-04T05:48:31.048Z,4.86
2023-02-04T05:50:57.682Z,4.83
2023-02-04T05:53:26.062Z,4.83
2023-02-04T05:55:52.675Z,4.82
2023-02-04T05:58:19.231Z,4.84
2023-02-04T06:00:45.958Z,4.87
2023-02-04T06:03:14.525Z,4.87
2023-02-04T06:05:41.077Z,4.85
2023-02-04T06:08:07.539Z,4.86
2023-02-04T06:10:34.270Z,4.91
2023-02-04T06:13:00.800Z,4.94
2023-02-04T06:15:27.323Z,4.98
2023-02-04T06:17:53.784Z,4.97
2023-02-04T06:20:20.447Z,4.99
2023-02-04T06:22:47.740Z,4.99
2023-02-04T06:25:14.432Z,5.00
2023-02-04T06:27:41.020Z,5.03
2023-02-04T06:30:08.219Z,5.04
2023-02-04T06:32:34.953Z,5.06
2023-02-04T06:35:01.380Z,5.04
2023-02-04T06:37:27.858Z,5.03
2023-02-04T06:39:54.864Z,5.04
2023-02-04T06:42:21.390Z,5.07
2023-02-04T06:44:47.854Z,5.09
2023-02-04T06:47:14.554Z,5.11
2023-02-04T06:49:41.047Z,5.15
2023-02-04T06:52:07.523Z,5.17
2023-02-04T06:54:34.411Z,5.18
2023-02-04T06:57:06.597Z,5.21
2023-02-04T06:59:38.524Z,5.22
2023-02-04T07:02:07.036Z,5.23
2023-02-04T07:04:34.794Z,5.24
2023-02-04T07:07:01.402Z,5.24
2023-02-04T07:09:27.921Z,5.24
2023-02-04T07:11:54.628Z,5.26
2023-02-04T07:14:21.220Z,5.27
2023-02-04T07:16:47.905Z,5.27
2023-02-04T07:19:14.404Z,5.27
2023-02-04T07:21:40.864Z,5.28
2023-02-04T07:24:07.514Z,5.30
2023-02-04T07:26:34.377Z,5.28
2023-02-04T07:29:01.014Z,5.29
2023-02-04T07:31:27.962Z,5.30
2023-02-04T07:33:54.454Z,5.33
2023-02-04T07:36:21.020Z,5.32
2023-02-04T07:38:47.532Z,5.34
2023-02-04T07:41:14.111Z,5.38
2023-02-04T07:43:40.820Z,5.41
2023-02-04T07:46:07.325Z,5.44
2023-02-04T07:48:33.870Z,5.46
2023-02-04T07:51:00.442Z,5.49
2023-02-04T07:53:26.935Z,5.55
2023-02-04T07:55:53.527Z,5.60
2023-02-04T07:58:20.060Z,5.65
2023-02-04T08:00:46.533Z,5.71
2023-02-04T08:03:13.010Z,5.76
2023-02-04T08:05:39.636Z,5.80
2023-02-04T08:08:06.136Z,5.83
2023-02-04T08:10:32.906Z,5.84
2023-02-04T08:12:59.588Z,5.88
2023-02-04T08:15:26.088Z,5.92
2023-02-04T08:17:52.572Z,5.94
2023-02-04T08:20:19.762Z,5.99
2023-02-04T08:22:46.284Z,6.05
2023-02-04T08:25:13.256Z,6.11
2023-02-04T08:27:39.935Z,6.17
2023-02-04T08:30:07.386Z,6.22
2023-02-04T08:32:33.973Z,6.25
2023-02-04T08:35:00.990Z,6.29
2023-02-04T08:37:27.547Z,6.33
2023-02-04T08:39:54.370Z,6.37
2023-02-04T08:42:20.881Z,6.43
2023-02-04T08:44:47.411Z,6.50
2023-02-04T08:47:14.024Z,6.57
2023-02-04T08:49:40.559Z,6.64
2023-02-04T08:52:07.957Z,6.72
2023-02-04T08:54:35.302Z,6.82
2023-02-04T08:57:02.535Z,6.89
2023-02-04T08:59:29.529Z,6.96
2023-02-04T09:01:56.050Z,7.03
2023-02-04T09:04:23.459Z,7.03
2023-02-04T09:06:50.833Z,7.04
2023-02-04T09:09:17.635Z,7.05
2023-02-04T09:11:44.117Z,7.03
2023-02-04T09:14:10.572Z,7.07
2023-02-04T09:16:37.153Z,7.11
2023-02-04T09:19:03.815Z,7.16
2023-02-04T09:21:31.679Z,7.21
2023-02-04T09:23:58.180Z,7.27
2023-02-04T09:26:24.773Z,7.34
2023-02-04T09:28:51.318Z,7.43
2023-02-04T09:31:18.038Z,7.55
2023-02-04T09:33:44.720Z,7.66
2023-02-04T09:36:11.334Z,7.72
2023-02-04T09:38:37.842Z,7.70
2023-02-04T09:41:08.071Z,7.66
2023-02-04T09:43:38.476Z,7.73
2023-02-04T09:46:05.761Z,7.77
2023-02-04T09:48:32.727Z,7.83
2023-02-04T09:51:05.359Z,7.94
2023-02-04T09:53:32.861Z,8.05
2023-02-04T09:55:59.503Z,8.15
2023-02-04T09:58:31.327Z,8.17
2023-02-04T10:01:15.551Z,8.33
2023-02-04T10:03:46.916Z,8.50
2023-02-04T10:06:19.132Z,8.57
2023-02-04T10:08:47.596Z,8.62
2023-02-04T10:11:15.861Z,8.71
2023-02-04T10:13:50.354Z,8.62
2023-02-04T10:16:30.192Z,8.65
2023-02-04T10:19:02.796Z,8.67
2023-02-04T10:21:36.768Z,8.67
2023-02-04T10:24:07.274Z,8.66
2023-02-04T10:26:34.091Z,8.77
2023-02-04T10:29:03.659Z,8.79
2023-02-04T10:31:33.407Z,8.83
2023-02-04T10:34:39.562Z,8.83
2023-02-04T10:37:22.718Z,8.97
2023-02-04T10:39:49.945Z,9.17
2023-02-04T10:42:25.318Z,9.28
2023-02-04T10:44:52.759Z,9.45
2023-02-04T10:47:22.437Z,9.43
2023-02-04T10:49:54.572Z,9.41
2023-02-04T10:52:24.554Z,9.44
2023-02-04T10:54:51.237Z,9.50
2023-02-04T10:57:28.386Z,9.43
2023-02-04T11:00:01.358Z,9.37
2023-02-04T11:02:41.425Z,9.71
2023-02-04T11:05:17.566Z,9.88
2023-02-04T11:07:46.429Z,9.62
2023-02-04T11:10:15.799Z,9.52
2023-02-04T11:13:03.103Z,9.74
2023-02-04T11:15:41.515Z,9.95
2023-02-04T11:18:44.223Z,9.84
2023-02-04T11:21:30.222Z,9.66
2023-02-04T11:24:24.716Z,9.63
2023-02-04T11:26:54.123Z,9.59
2023-02-04T11:29:38.235Z,9.50
2023-02-04T11:32:26.040Z,9.44
2023-02-04T11:34:53.140Z,9.44
2023-02-04T11:37:35.291Z,9.41
2023-02-04T11:40:09.001Z,9.36
2023-02-04T11:42:42.628Z,9.36
2023-02-04T11:45:24.040Z,9.29
2023-02-04T11:47:51.659Z,9.18
2023-02-04T11:50:26.225Z,9.18
2023-02-04T11:52:57.658Z,9.23
2023-02-04T11:55:24.706Z,9.38
2023-02-04T11:57:54.137Z,9.41
2023-02-04T12:00:23.632Z,9.35
2023-02-04T12:03:07.888Z,9.36
2023-02-04T12:05:47.180Z,9.43
2023-02-04T12:08:24.667Z,9.54
2023-02-04T12:11:18.074Z,9.70
2023-02-04T12:13:50.194Z,9.70
2023-02-04T12:16:16.834Z,9.67
2023-02-04T12:18:43.444Z,9.57
2023-02-04T12:21:10.036Z,9.62
2023-02-04T12:23:36.588Z,9.68
2023-02-04T12:26:03.266Z,9.72
2023-02-04T12:28:29.791Z,9.68
2023-02-04T12:30:56.916Z,9.68
2023-02-04T12:33:23.790Z,9.73
2023-02-04T12:35:50.592Z,9.73
2023-02-04T12:38:18.346Z,9.81
2023-02-04T12:40:45.777Z,9.85
2023-02-04T12:43:12.229Z,9.91
2023-02-04T12:45:40.065Z,9.89
2023-02-04T12:48:06.529Z,9.94
2023-02-04T12:50:33.120Z,10.02
2023-02-04T12:52:59.994Z,10.07
2023-02-04T12:55:28.406Z,10.07
2023-02-04T12:57:56.268Z,10.23
2023-02-04T13:00:23.703Z,10.20
2023-02-04T13:02:50.356Z,10.24
2023-02-04T13:05:17.531Z,10.19
2023-02-04T13:07:44.247Z,10.15
2023-02-04T13:10:12.528Z,10.18
2023-02-04T13:12:39.119Z,10.27
2023-02-04T13:15:06.680Z,10.33
2023-02-04T13:17:33.799Z,10.23
2023-02-04T13:20:00.764Z,10.15
2023-02-04T13:22:27.535Z,10.09
2023-02-04T13:24:54.098Z,10.02
2023-02-04T13:27:20.630Z,9.85
2023-02-04T13:29:47.118Z,9.90
2023-02-04T13:32:13.625Z,9.93
2023-02-04T13:34:40.172Z,9.90
2023-02-04T13:37:06.641Z,9.89
2023-02-04T13:39:33.121Z,9.92
2023-02-04T13:41:59.749Z,9.87
2023-02-04T13:44:26.183Z,9.84
2023-02-04T13:46:52.982Z,9.79
2023-02-04T13:49:19.510Z,9.72
2023-02-04T13:51:46.422Z,9.71
2023-02-04T13:54:12.950Z,9.67
2023-02-04T13:56:41.185Z,9.63
2023-02-04T13:59:07.773Z,9.67
2023-02-04T14:01:34.305Z,9.72
2023-02-04T14:04:00.892Z,9.83
2023-02-04T14:06:33.420Z,9.85
2023-02-04T14:09:01.375Z,9.87
2023-02-04T14:11:28.092Z,9.82
2023-02-04T14:13:54.657Z,9.76
2023-02-04T14:16:21.442Z,9.77
2023-02-04T14:18:47.949Z,9.86
2023-02-04T14:21:14.399Z,9.91
2023-02-04T14:23:41.570Z,9.98
2023-02-04T14:26:08.076Z,10.03
2023-02-04T14:28:34.713Z,10.12
2023-02-04T14:31:01.858Z,10.13
2023-02-04T14:33:28.499Z,10.08
2023-02-04T14:35:55.152Z,9.99
2023-02-04T14:38:21.638Z,10.03
2023-02-04T14:40:48.086Z,10.03
2023-02-04T14:43:14.634Z,10.01
2023-02-04T14:45:41.396Z,9.95
2023-02-04T14:48:08.651Z,9.91
2023-02-04T14:50:35.838Z,9.86
2023-02-04T14:53:02.891Z,9.74
2023-02-04T14:55:29.380Z,9.79
2023-02-04T14:57:55.934Z,9.78
2023-02-04T15:00:22.730Z,9.74
2023-02-04T15:02:49.385Z,9.66
2023-02-04T15:05:16.043Z,9.61
2023-02-04T15:07:42.657Z,9.62
2023-02-04T15:10:10.750Z,9.55
2023-02-04T15:12:37.421Z,9.52
2023-02-04T15:15:04.962Z,9.49
2023-02-04T15:17:31.483Z,9.48
2023-02-04T15:19:58.055Z,9.51
2023-02-04T15:22:24.579Z,9.55
2023-02-04T15:24:51.100Z,9.55
2023-02-04T15:27:17.732Z,9.55
2023-02-04T15:29:44.278Z,9.49
2023-02-04T15:32:10.831Z,9.46
2023-02-04T15:34:37.347Z,9.41
2023-02-04T15:37:03.848Z,9.38
2023-02-04T15:39:30.429Z,9.36
2023-02-04T15:41:57.467Z,9.31
2023-02-04T15:44:24.327Z,9.27
2023-02-04T15:46:51.922Z,9.20
2023-02-04T15:49:18.413Z,9.20
2023-02-04T15:51:44.935Z,9.21
2023-02-04T15:54:11.446Z,9.17
2023-02-04T15:56:37.983Z,9.13
2023-02-04T15:59:04.565Z,9.08
2023-02-04T16:01:31.156Z,9.04
2023-02-04T16:03:58.904Z,9.00
2023-02-04T16:06:25.495Z,8.95
2023-02-04T16:08:52.299Z,8.89
2023-02-04T16:11:18.887Z,8.85
2023-02-04T16:13:45.420Z,8.82
2023-02-04T16:16:12.072Z,8.78
2023-02-04T16:18:38.685Z,8.74
2023-02-04T16:21:05.466Z,8.71
2023-02-04T16:23:31.922Z,8.64
2023-02-04T16:25:58.377Z,8.61
2023-02-04T16:28:25.404Z,8.58
2023-02-04T16:30:52.101Z,8.54
2023-02-04T16:33:18.599Z,8.46
2023-02-04T16:36:07.202Z,8.40
2023-02-04T16:38:34.312Z,8.35
2023-02-04T16:41:00.864Z,8.33
2023-02-04T16:43:27.505Z,8.29
2023-02-04T16:45:54.986Z,8.28
2023-02-04T16:48:21.631Z,8.24
2023-02-04T16:50:48.397Z,8.22
2023-02-04T16:53:16.113Z,8.17
2023-02-04T16:55:44.033Z,8.13
2023-02-04T16:58:11.358Z,8.07
2023-02-04T17:00:41.943Z,8.00
2023-02-04T17:03:10.093Z,7.95
2023-02-04T17:05:37.359Z,7.94
2023-02-04T17:08:04.326Z,7.91
2023-02-04T17:10:49.479Z,7.88
2023-02-04T17:13:16.019Z,7.84
2023-02-04T17:15:42.617Z,7.81
2023-02-04T17:18:09.544Z,7.80
2023-02-04T17:20:36.196Z,7.80
2023-02-04T17:23:02.807Z,7.76
2023-02-04T17:25:29.314Z,7.72
2023-02-04T17:27:56.873Z,7.67
2023-02-04T17:30:23.602Z,7.66
2023-02-04T17:32:50.208Z,7.68
2023-02-04T17:35:17.395Z,7.67
2023-02-04T17:37:44.608Z,7.66
2023-02-04T17:40:14.498Z,7.64
2023-02-04T17:42:41.335Z,7.64
2023-02-04T17:45:10.590Z,7.63
2023-02-04T17:47:40.470Z,7.61
2023-02-04T17:50:09.862Z,7.62
2023-02-04T17:52:36.828Z,7.60
2023-02-04T17:55:16.727Z,7.58
2023-02-04T17:57:43.714Z,7.50
2023-02-04T18:00:17.101Z,7.43
2023-02-04T18:02:46.141Z,7.40
2023-02-04T18:05:19.204Z,7.37
2023-02-04T18:08:16.635Z,7.34
2023-02-04T18:10:45.919Z,7.30
2023-02-04T18:13:30.504Z,7.23
2023-02-04T18:16:03.010Z,7.17
2023-02-04T18:18:36.660Z,7.15
2023-02-04T18:21:28.338Z,7.15
2023-02-04T18:24:14.410Z,7.19
2023-02-04T18:26:50.189Z,7.24
2023-02-04T18:29:32.869Z,7.28
2023-02-04T18:32:08.846Z,7.31
2023-02-04T18:34:40.942Z,7.33
2023-02-04T18:37:33.046Z,7.34
2023-02-04T18:40:08.485Z,7.32
2023-02-04T18:42:38.480Z,7.30
2023-02-04T18:45:29.381Z,7.32
2023-02-04T18:47:59.335Z,7.34
2023-02-04T18:50:32.283Z,7.35
2023-02-04T18:53:18.281Z,7.34
2023-02-04T18:55:50.486Z,7.33
2023-02-04T18:58:17.157Z,7.35
2023-02-04T19:00:49.330Z,7.35
2023-02-04T19:03:31.390Z,7.34
2023-02-04T19:06:00.916Z,7.35
2023-02-04T19:08:43.712Z,7.35
2023-02-04T19:11:40.643Z,7.35
2023-02-04T19:14:35.669Z,7.31
2023-02-04T19:17:14.813Z,7.29
2023-02-04T19:19:57.295Z,7.28
2023-02-04T19:22:37.712Z,7.27
2023-02-04T19:25:22.525Z,7.26
2023-02-04T19:27:56.015Z,7.25
2023-02-04T19:30:28.838Z,7.23
2023-02-04T19:32:57.593Z,7.20
2023-02-04T19:35:26.484Z,7.17
2023-02-04T19:38:00.394Z,7.15
2023-02-04T19:40:33.710Z,7.12
2023-02-04T19:43:08.986Z,7.06
2023-02-04T19:45:35.865Z,7.02
2023-02-04T19:48:17.044Z,6.97
2023-02-04T19:50:43.514Z,6.95
2023-02-04T19:53:20.431Z,6.96
2023-02-04T19:55:52.039Z,6.96
2023-02-04T19:58:20.106Z,6.98
2023-02-04T20:00:47.698Z,6.98
2023-02-04T20:03:33.358Z,6.96
2023-02-04T20:06:09.068Z,6.97
2023-02-04T20:08:49.517Z,6.97
2023-02-04T20:11:31.125Z,6.99
2023-02-04T20:14:19.863Z,6.99
2023-02-04T20:17:00.387Z,6.99
2023-02-04T20:19:29.944Z,6.96
2023-02-04T20:22:05.244Z,6.97
2023-02-04T20:24:35.739Z,6.98
2023-02-04T20:27:19.148Z,6.99
2023-02-04T20:29:46.653Z,6.99
2023-02-04T20:32:19.041Z,7.00
2023-02-04T20:34:45.659Z,6.94
2023-02-04T20:37:25.969Z,6.89
2023-02-04T20:39:52.509Z,6.86
2023-02-04T20:42:43.460Z,6.82
2023-02-04T20:45:12.825Z,6.82
2023-02-04T20:47:39.517Z,6.81
2023-02-04T20:50:38.218Z,6.84
2023-02-04T20:53:24.770Z,6.85
2023-02-04T20:56:06.875Z,6.86
2023-02-04T20:58:36.642Z,6.85
2023-02-04T21:01:03.232Z,6.84
2023-02-04T21:03:35.223Z,6.85
2023-02-04T21:06:03.112Z,6.85
2023-02-04T21:08:34.269Z,6.84
2023-02-04T21:11:01.913Z,6.83
2023-02-04T21:13:28.539Z,6.81
2023-02-04T21:15:55.488Z,6.77
2023-02-04T21:18:22.332Z,6.75
2023-02-04T21:20:48.861Z,6.72
2023-02-04T21:23:17.241Z,6.67
2023-02-04T21:25:44.813Z,6.64
2023-02-04T21:28:12.047Z,6.62
2023-02-04T21:30:38.942Z,6.61
2023-02-04T21:33:05.771Z,6.58
2023-02-04T21:35:32.674Z,6.56
2023-02-04T21:37:59.834Z,6.52
2023-02-04T21:40:26.926Z,6.51
2023-02-04T21:42:54.180Z,6.52
2023-02-04T21:45:24.378Z,6.52
2023-02-04T21:47:52.118Z,6.50
2023-02-04T21:50:21.064Z,6.52
2023-02-04T21:52:48.353Z,6.53
2023-02-04T21:55:17.123Z,6.53
2023-02-04T21:57:43.571Z,6.53
2023-02-04T22:00:11.023Z,6.53
2023-02-04T22:02:37.517Z,6.53
2023-02-04T22:05:07.330Z,6.53
2023-02-04T22:07:35.637Z,6.52
2023-02-04T22:10:03.951Z,6.51
2023-02-04T22:12:30.534Z,6.54
2023-02-04T22:14:57.341Z,6.53
2023-02-04T22:17:23.943Z,6.54
2023-02-04T22:19:50.566Z,6.54
2023-02-04T22:22:17.980Z,6.56
2023-02-04T22:24:44.550Z,6.58
2023-02-04T22:27:11.015Z,6.60
2023-02-04T22:29:37.962Z,6.60
2023-02-04T22:32:04.710Z,6.62
2023-02-04T22:34:31.558Z,6.61
2023-02-04T22:36:58.277Z,6.61
2023-02-04T22:39:25.307Z,6.62
2023-02-04T22:41:52.792Z,6.60
2023-02-04T22:44:19.320Z,6.61
2023-02-04T22:46:47.526Z,6.61
2023-02-04T22:49:14.212Z,6.60
2023-02-04T22:51:40.840Z,6.61
2023-02-04T22:54:07.347Z,6.60
2023-02-04T22:56:35.011Z,6.59
2023-02-04T22:59:01.530Z,6.59
2023-02-04T23:01:28.085Z,6.59
2023-02-04T23:03:54.603Z,6.60
2023-02-04T23:06:22.540Z,6.59
2023-02-04T23:08:49.580Z,6.60
2023-02-04T23:11:18.496Z,6.61
2023-02-04T23:13:46.157Z,6.59
2023-02-04T23:16:12.738Z,6.57
2023-02-04T23:18:39.356Z,6.57
2023-02-04T23:21:06.246Z,6.54
2023-02-04T23:23:33.390Z,6.52
2023-02-04T23:26:00.582Z,6.52
2023-02-04T23:28:27.099Z,6.49
2023-02-04T23:30:53.662Z,6.49
2023-02-04T23:33:20.219Z,6.47
2023-02-04T23:35:46.972Z,6.47
2023-02-04T23:38:13.681Z,6.49
2023-02-04T23:40:40.303Z,6.50
2023-02-04T23:43:08.852Z,6.53
2023-02-04T23:45:37.255Z,6.54
2023-02-04T23:48:03.999Z,6.53
2023-02-04T23:50:30.753Z,6.55
2023-02-04T23:52:57.248Z,6.58
2023-02-04T23:55:23.746Z,6.59
2023-02-04T23:57:50.599Z,6.59
